sensor_id;sensor_type;location;lat;lon;timestamp;pressure;altitude;pressure_sealevel;temperature;humidity
61961;BME280;47923;42.506;24.192;2023-05-22T00:01:35;95183.13;;;11.88;81.74
61961;BME280;47923;42.506;24.192;2023-05-22T00:04:02;95261.31;;;12.34;82.17
61961;BME280;47923;42.506;24.192;2023-05-22T00:06:28;95248.28;;;12.06;82.95
61961;BME280;47923;42.506;24.192;2023-05-22T00:08:54;95264.97;;;12.12;83.30
61961;BME280;47923;42.506;24.192;2023-05-22T00:11:21;95247.72;;;11.90;83.38
61961;BME280;47923;42.506;24.192;2023-05-22T00:13:46;95235.56;;;11.77;83.68
61961;BME280;47923;42.506;24.192;2023-05-22T00:16:12;95176.59;;;11.22;83.50
61961;BME280;47923;42.506;24.192;2023-05-22T00:18:38;95238.03;;;11.55;82.61
61961;BME280;47923;42.506;24.192;2023-05-22T00:21:06;95192.25;;;11.06;83.36
61961;BME280;47923;42.506;24.192;2023-05-22T00:23:32;94983.00;;;9.83;82.35
61961;BME280;47923;42.506;24.192;2023-05-22T00:25:58;95220.38;;;11.31;83.44
61961;BME280;47923;42.506;24.192;2023-05-22T00:28:24;95260.00;;;11.50;82.99
61961;BME280;47923;42.506;24.192;2023-05-22T00:30:50;95251.06;;;11.46;83.99
61961;BME280;47923;42.506;24.192;2023-05-22T00:33:16;95256.41;;;11.39;83.52
61961;BME280;47923;42.506;24.192;2023-05-22T00:35:41;95107.53;;;10.35;85.37
61961;BME280;47923;42.506;24.192;2023-05-22T00:38:07;95256.06;;;11.14;85.87
61961;BME280;47923;42.506;24.192;2023-05-22T00:40:33;95223.25;;;10.86;86.60
61961;BME280;47923;42.506;24.192;2023-05-22T00:42:58;95251.91;;;10.94;87.00
61961;BME280;47923;42.506;24.192;2023-05-22T00:45:24;95190.56;;;10.41;88.12
61961;BME280;47923;42.506;24.192;2023-05-22T00:47:50;95258.59;;;10.73;88.16
61961;BME280;47923;42.506;24.192;2023-05-22T00:50:17;95251.88;;;10.64;88.06
61961;BME280;47923;42.506;24.192;2023-05-22T00:52:44;95252.50;;;10.54;88.33
61961;BME280;47923;42.506;24.192;2023-05-22T00:55:11;94973.88;;;8.70;87.01
61961;BME280;47923;42.506;24.192;2023-05-22T00:57:37;95020.47;;;8.93;88.21
61961;BME280;47923;42.506;24.192;2023-05-22T01:00:08;95158.63;;;9.75;88.14
61961;BME280;47923;42.506;24.192;2023-05-22T01:02:35;95232.28;;;10.21;88.35
61961;BME280;47923;42.506;24.192;2023-05-22T01:05:02;95054.06;;;8.99;87.50
61961;BME280;47923;42.506;24.192;2023-05-22T01:07:28;95239.44;;;10.13;87.89
61961;BME280;47923;42.506;24.192;2023-05-22T01:09:54;95235.94;;;10.09;87.86
61961;BME280;47923;42.506;24.192;2023-05-22T01:12:28;95235.38;;;10.00;88.02
61961;BME280;47923;42.506;24.192;2023-05-22T01:15:09;95246.06;;;9.93;88.30
61961;BME280;47923;42.506;24.192;2023-05-22T01:21:05;95240.09;;;9.84;88.22
61961;BME280;47923;42.506;24.192;2023-05-22T01:26:41;95188.41;;;9.39;89.02
61961;BME280;47923;42.506;24.192;2023-05-22T01:29:29;95192.97;;;9.35;88.89
61961;BME280;47923;42.506;24.192;2023-05-22T01:32:00;95158.81;;;9.20;89.37
61961;BME280;47923;42.506;24.192;2023-05-22T01:34:27;95236.34;;;9.69;89.32
61961;BME280;47923;42.506;24.192;2023-05-22T01:36:55;95073.53;;;8.70;88.82
61961;BME280;47923;42.506;24.192;2023-05-22T01:39:23;95070.63;;;8.78;88.36
61961;BME280;47923;42.506;24.192;2023-05-22T01:41:50;95236.19;;;9.81;89.01
61961;BME280;47923;42.506;24.192;2023-05-22T01:44:15;95228.09;;;9.81;89.03
61961;BME280;47923;42.506;24.192;2023-05-22T01:46:41;95034.00;;;8.54;87.94
61961;BME280;47923;42.506;24.192;2023-05-22T01:49:06;95216.38;;;9.70;88.31
61961;BME280;47923;42.506;24.192;2023-05-22T01:57:06;94617.38;;;6.10;86.22
61961;BME280;47923;42.506;24.192;2023-05-22T01:59:46;95200.59;;;9.95;86.84
61961;BME280;47923;42.506;24.192;2023-05-22T02:02:18;95187.72;;;9.85;86.67
61961;BME280;47923;42.506;24.192;2023-05-22T02:04:45;95170.25;;;9.79;85.39
61961;BME280;47923;42.506;24.192;2023-05-22T02:07:13;95171.56;;;9.88;85.77
61961;BME280;47923;42.506;24.192;2023-05-22T02:09:43;95160.06;;;9.68;86.30
61961;BME280;47923;42.506;24.192;2023-05-22T02:12:11;95086.94;;;9.28;86.26
61961;BME280;47923;42.506;24.192;2023-05-22T02:14:37;95150.84;;;9.69;86.45
61961;BME280;47923;42.506;24.192;2023-05-22T02:17:04;95245.91;;;10.28;85.98
61961;BME280;47923;42.506;24.192;2023-05-22T02:19:30;95230.50;;;10.29;85.15
61961;BME280;47923;42.506;24.192;2023-05-22T02:21:58;95026.63;;;8.94;85.97
61961;BME280;47923;42.506;24.192;2023-05-22T02:24:24;95213.25;;;10.14;85.84
61961;BME280;47923;42.506;24.192;2023-05-22T02:26:49;95228.78;;;10.20;85.57
61961;BME280;47923;42.506;24.192;2023-05-22T02:29:15;95216.41;;;10.19;85.20
61961;BME280;47923;42.506;24.192;2023-05-22T02:31:40;95145.38;;;9.66;85.75
61961;BME280;47923;42.506;24.192;2023-05-22T02:34:06;95236.31;;;10.31;84.89
61961;BME280;47923;42.506;24.192;2023-05-22T02:36:31;94777.00;;;7.25;85.17
61961;BME280;47923;42.506;24.192;2023-05-22T02:38:58;95231.28;;;10.29;86.35
61961;BME280;47923;42.506;24.192;2023-05-22T02:41:23;94870.81;;;7.88;85.50
61961;BME280;47923;42.506;24.192;2023-05-22T02:43:49;95116.59;;;9.51;86.18
61961;BME280;47923;42.506;24.192;2023-05-22T02:46:14;94822.34;;;7.46;85.61
61961;BME280;47923;42.506;24.192;2023-05-22T02:48:40;94815.63;;;7.56;84.45
61961;BME280;47923;42.506;24.192;2023-05-22T02:51:05;95218.34;;;10.19;84.15
61961;BME280;47923;42.506;24.192;2023-05-22T02:53:31;95193.81;;;10.05;85.05
61961;BME280;47923;42.506;24.192;2023-05-22T02:55:59;95212.00;;;10.08;85.31
61961;BME280;47923;42.506;24.192;2023-05-22T02:58:25;95252.56;;;10.34;85.12
61961;BME280;47923;42.506;24.192;2023-05-22T03:00:51;95005.97;;;8.78;85.07
61961;BME280;47923;42.506;24.192;2023-05-22T03:03:17;94579.31;;;6.04;84.67
61961;BME280;47923;42.506;24.192;2023-05-22T03:05:43;95234.50;;;10.38;85.53
61961;BME280;47923;42.506;24.192;2023-05-22T03:08:10;95231.81;;;10.38;85.16
61961;BME280;47923;42.506;24.192;2023-05-22T03:10:36;94867.91;;;7.97;84.29
61961;BME280;47923;42.506;24.192;2023-05-22T03:13:02;95228.50;;;10.26;84.78
61961;BME280;47923;42.506;24.192;2023-05-22T03:15:27;95248.59;;;10.51;84.14
61961;BME280;47923;42.506;24.192;2023-05-22T03:17:53;95249.50;;;10.59;83.22
61961;BME280;47923;42.506;24.192;2023-05-22T03:20:21;95036.63;;;9.35;83.54
61961;BME280;47923;42.506;24.192;2023-05-22T03:22:47;95245.59;;;10.83;83.45
61961;BME280;47923;42.506;24.192;2023-05-22T03:25:13;95037.50;;;9.66;81.92
61961;BME280;47923;42.506;24.192;2023-05-22T03:27:38;95214.91;;;10.98;82.27
61961;BME280;47923;42.506;24.192;2023-05-22T03:30:06;94783.53;;;8.28;81.76
61961;BME280;47923;42.506;24.192;2023-05-22T03:32:31;95160.44;;;10.96;81.46
61961;BME280;47923;42.506;24.192;2023-05-22T03:35:01;95242.38;;;11.63;80.53
61961;BME280;47923;42.506;24.192;2023-05-22T03:37:26;94837.81;;;9.02;79.98
61961;BME280;47923;42.506;24.192;2023-05-22T03:39:52;95252.69;;;11.84;79.91
61961;BME280;47923;42.506;24.192;2023-05-22T03:42:17;95243.81;;;11.87;79.24
61961;BME280;47923;42.506;24.192;2023-05-22T03:44:45;95251.75;;;12.07;78.57
61961;BME280;47923;42.506;24.192;2023-05-22T03:47:11;94993.97;;;10.54;78.38
61961;BME280;47923;42.506;24.192;2023-05-22T03:49:36;95191.66;;;12.35;77.39
61961;BME280;47923;42.506;24.192;2023-05-22T03:52:02;95231.25;;;14.42;71.27
61961;BME280;47923;42.506;24.192;2023-05-22T03:54:27;95161.59;;;16.00;64.25
61961;BME280;47923;42.506;24.192;2023-05-22T03:56:53;95248.06;;;17.75;55.81
61961;BME280;47923;42.506;24.192;2023-05-22T03:59:18;95230.94;;;16.99;56.10
61961;BME280;47923;42.506;24.192;2023-05-22T04:01:44;95232.03;;;16.05;58.87
61961;BME280;47923;42.506;24.192;2023-05-22T04:04:10;95258.34;;;15.42;62.25
61961;BME280;47923;42.506;24.192;2023-05-22T04:06:37;95228.53;;;16.01;61.61
61961;BME280;47923;42.506;24.192;2023-05-22T04:09:10;95245.34;;;18.06;54.71
61961;BME280;47923;42.506;24.192;2023-05-22T04:11:37;95153.53;;;18.82;49.53
61961;BME280;47923;42.506;24.192;2023-05-22T04:14:04;95254.38;;;19.90;48.16
61961;BME280;47923;42.506;24.192;2023-05-22T04:16:31;94778.22;;;17.52;46.30
61961;BME280;47923;42.506;24.192;2023-05-22T04:18:57;95182.66;;;21.38;43.19
61961;BME280;47923;42.506;24.192;2023-05-22T04:21:22;95242.13;;;23.39;39.97
61961;BME280;47923;42.506;24.192;2023-05-22T04:23:49;95238.50;;;24.70;37.85
61961;BME280;47923;42.506;24.192;2023-05-22T04:26:15;95164.47;;;25.42;34.25
61961;BME280;47923;42.506;24.192;2023-05-22T04:28:42;95240.91;;;27.03;32.68
61961;BME280;47923;42.506;24.192;2023-05-22T04:31:13;95178.91;;;27.39;30.73
61961;BME280;47923;42.506;24.192;2023-05-22T04:33:38;95228.78;;;28.46;29.57
61961;BME280;47923;42.506;24.192;2023-05-22T04:36:05;95232.72;;;29.04;28.50
61961;BME280;47923;42.506;24.192;2023-05-22T04:38:31;95152.75;;;29.60;26.18
61961;BME280;47923;42.506;24.192;2023-05-22T04:41:01;95154.47;;;30.41;25.72
61961;BME280;47923;42.506;24.192;2023-05-22T04:43:26;95129.47;;;30.95;24.62
61961;BME280;47923;42.506;24.192;2023-05-22T04:45:52;95235.81;;;29.93;26.28
61961;BME280;47923;42.506;24.192;2023-05-22T04:48:18;95024.06;;;27.08;27.68
61961;BME280;47923;42.506;24.192;2023-05-22T04:50:44;95223.50;;;28.63;27.46
61961;BME280;47923;42.506;24.192;2023-05-22T04:53:12;95239.53;;;28.88;27.19
61961;BME280;47923;42.506;24.192;2023-05-22T04:55:38;95236.84;;;30.16;25.75
61961;BME280;47923;42.506;24.192;2023-05-22T04:58:04;95227.00;;;31.86;23.35
61961;BME280;47923;42.506;24.192;2023-05-22T05:00:30;95213.88;;;32.99;22.09
61961;BME280;47923;42.506;24.192;2023-05-22T05:02:56;95221.41;;;33.32;21.20
61961;BME280;47923;42.506;24.192;2023-05-22T05:05:21;95123.22;;;33.30;20.96
61961;BME280;47923;42.506;24.192;2023-05-22T05:07:48;95046.06;;;32.82;21.08
61961;BME280;47923;42.506;24.192;2023-05-22T05:10:14;95234.09;;;34.08;20.60
61961;BME280;47923;42.506;24.192;2023-05-22T05:12:39;95141.50;;;34.79;19.96
61961;BME280;47923;42.506;24.192;2023-05-22T05:15:06;95196.28;;;35.35;19.62
61961;BME280;47923;42.506;24.192;2023-05-22T05:17:34;95232.06;;;35.96;18.05
61961;BME280;47923;42.506;24.192;2023-05-22T05:20:00;95234.25;;;36.41;18.55
61961;BME280;47923;42.506;24.192;2023-05-22T05:22:25;95079.91;;;34.93;18.14
61961;BME280;47923;42.506;24.192;2023-05-22T05:24:51;95207.66;;;35.86;18.44
61961;BME280;47923;42.506;24.192;2023-05-22T05:27:16;95220.38;;;37.21;17.84
61961;BME280;47923;42.506;24.192;2023-05-22T05:29:42;95027.97;;;35.93;17.68
61961;BME280;47923;42.506;24.192;2023-05-22T05:32:07;95191.13;;;37.11;17.53
61961;BME280;47923;42.506;24.192;2023-05-22T05:34:34;95095.22;;;36.37;17.31
61961;BME280;47923;42.506;24.192;2023-05-22T05:37:00;95121.25;;;33.66;18.73
61961;BME280;47923;42.506;24.192;2023-05-22T05:39:27;95241.78;;;34.43;19.74
61961;BME280;47923;42.506;24.192;2023-05-22T05:41:52;95236.63;;;34.83;18.91
61961;BME280;47923;42.506;24.192;2023-05-22T05:44:18;95235.03;;;36.04;18.07
61961;BME280;47923;42.506;24.192;2023-05-22T05:46:43;95130.41;;;36.43;16.38
61961;BME280;47923;42.506;24.192;2023-05-22T05:49:09;95127.44;;;37.07;16.42
61961;BME280;47923;42.506;24.192;2023-05-22T05:51:36;95051.09;;;36.85;15.17
61961;BME280;47923;42.506;24.192;2023-05-22T05:54:02;95165.53;;;36.37;16.11
61961;BME280;47923;42.506;24.192;2023-05-22T05:56:27;95251.53;;;35.94;17.24
61961;BME280;47923;42.506;24.192;2023-05-22T05:58:53;95246.75;;;35.84;16.97
61961;BME280;47923;42.506;24.192;2023-05-22T06:01:18;95243.06;;;33.43;18.58
61961;BME280;47923;42.506;24.192;2023-05-22T06:03:44;95159.25;;;32.64;19.94
61961;BME280;47923;42.506;24.192;2023-05-22T06:06:10;95240.97;;;35.08;17.52
61961;BME280;47923;42.506;24.192;2023-05-22T06:08:36;95176.94;;;34.82;17.65
61961;BME280;47923;42.506;24.192;2023-05-22T06:11:02;95246.31;;;35.12;16.25
61961;BME280;47923;42.506;24.192;2023-05-22T06:13:28;95240.31;;;37.10;16.54
61961;BME280;47923;42.506;24.192;2023-05-22T06:15:54;95134.31;;;36.53;16.38
61961;BME280;47923;42.506;24.192;2023-05-22T06:18:19;95070.69;;;35.35;17.04
61961;BME280;47923;42.506;24.192;2023-05-22T06:20:45;95210.06;;;36.65;15.93
61961;BME280;47923;42.506;24.192;2023-05-22T06:23:11;95245.59;;;34.40;18.73
61961;BME280;47923;42.506;24.192;2023-05-22T06:25:36;95246.50;;;33.71;19.31
61961;BME280;47923;42.506;24.192;2023-05-22T06:28:04;95245.03;;;33.59;19.40
61961;BME280;47923;42.506;24.192;2023-05-22T06:30:30;95211.56;;;33.03;19.20
61961;BME280;47923;42.506;24.192;2023-05-22T06:32:56;95113.19;;;33.51;18.84
61961;BME280;47923;42.506;24.192;2023-05-22T06:35:21;95241.53;;;35.56;17.61
61961;BME280;47923;42.506;24.192;2023-05-22T06:37:47;95209.31;;;36.96;16.34
61961;BME280;47923;42.506;24.192;2023-05-22T06:40:13;95235.22;;;35.87;17.07
61961;BME280;47923;42.506;24.192;2023-05-22T06:42:39;95176.97;;;34.77;17.90
61961;BME280;47923;42.506;24.192;2023-05-22T06:45:05;95250.72;;;34.36;18.20
61961;BME280;47923;42.506;24.192;2023-05-22T06:47:31;95165.31;;;32.68;19.47
61961;BME280;47923;42.506;24.192;2023-05-22T06:49:57;95026.63;;;29.80;20.88
61961;BME280;47923;42.506;24.192;2023-05-22T06:52:22;95179.38;;;31.42;20.94
61961;BME280;47923;42.506;24.192;2023-05-22T06:54:47;95186.03;;;31.55;20.91
61961;BME280;47923;42.506;24.192;2023-05-22T06:57:13;95241.56;;;32.18;20.93
61961;BME280;47923;42.506;24.192;2023-05-22T06:59:39;95252.25;;;31.49;20.84
61961;BME280;47923;42.506;24.192;2023-05-22T07:02:05;95257.41;;;31.68;21.01
61961;BME280;47923;42.506;24.192;2023-05-22T07:04:30;95248.06;;;34.14;18.49
61961;BME280;47923;42.506;24.192;2023-05-22T07:06:56;95247.84;;;33.53;19.57
61961;BME280;47923;42.506;24.192;2023-05-22T07:09:21;95093.88;;;32.84;18.57
61961;BME280;47923;42.506;24.192;2023-05-22T07:11:47;95114.03;;;32.49;19.17
61961;BME280;47923;42.506;24.192;2023-05-22T07:14:13;95264.53;;;33.81;18.36
61961;BME280;47923;42.506;24.192;2023-05-22T07:16:39;95258.09;;;31.51;20.30
61961;BME280;47923;42.506;24.192;2023-05-22T07:19:05;95196.34;;;31.27;19.16
61961;BME280;47923;42.506;24.192;2023-05-22T07:21:31;95154.19;;;30.34;19.88
61961;BME280;47923;42.506;24.192;2023-05-22T07:23:56;95255.78;;;32.15;19.23
61961;BME280;47923;42.506;24.192;2023-05-22T07:26:22;95179.47;;;31.58;19.36
61961;BME280;47923;42.506;24.192;2023-05-22T07:28:49;95234.78;;;30.43;21.18
61961;BME280;47923;42.506;24.192;2023-05-22T07:31:14;95240.75;;;30.62;20.50
61961;BME280;47923;42.506;24.192;2023-05-22T07:33:40;95264.16;;;31.44;20.92
61961;BME280;47923;42.506;24.192;2023-05-22T07:36:06;95200.38;;;31.26;20.33
61961;BME280;47923;42.506;24.192;2023-05-22T07:38:31;95256.47;;;29.05;22.57
61961;BME280;47923;42.506;24.192;2023-05-22T07:40:57;95260.72;;;30.03;22.17
61961;BME280;47923;42.506;24.192;2023-05-22T07:43:22;95264.16;;;30.12;22.44
61961;BME280;47923;42.506;24.192;2023-05-22T07:45:48;95215.75;;;30.10;22.97
61961;BME280;47923;42.506;24.192;2023-05-22T07:48:13;95254.47;;;30.65;23.04
61961;BME280;47923;42.506;24.192;2023-05-22T07:50:39;95260.56;;;31.98;21.59
61961;BME280;47923;42.506;24.192;2023-05-22T07:53:09;95210.75;;;33.31;19.72
61961;BME280;47923;42.506;24.192;2023-05-22T07:55:34;95251.91;;;31.30;20.32
61961;BME280;47923;42.506;24.192;2023-05-22T07:57:59;95140.25;;;30.34;22.23
61961;BME280;47923;42.506;24.192;2023-05-22T08:00:28;95255.84;;;29.51;24.00
61961;BME280;47923;42.506;24.192;2023-05-22T08:02:54;95246.88;;;28.56;24.22
61961;BME280;47923;42.506;24.192;2023-05-22T08:05:19;95264.38;;;27.89;25.20
61961;BME280;47923;42.506;24.192;2023-05-22T08:07:45;95208.47;;;27.81;24.87
61961;BME280;47923;42.506;24.192;2023-05-22T08:10:14;95109.50;;;26.38;25.34
61961;BME280;47923;42.506;24.192;2023-05-22T08:12:40;94915.97;;;26.40;23.73
61961;BME280;47923;42.506;24.192;2023-05-22T08:15:06;94914.75;;;25.60;25.16
61961;BME280;47923;42.506;24.192;2023-05-22T08:17:31;94908.72;;;25.71;24.39
61961;BME280;47923;42.506;24.192;2023-05-22T08:19:57;95259.81;;;28.74;23.29
61961;BME280;47923;42.506;24.192;2023-05-22T08:22:23;95244.31;;;29.23;23.71
61961;BME280;47923;42.506;24.192;2023-05-22T08:24:48;95265.31;;;28.89;22.97
61961;BME280;47923;42.506;24.192;2023-05-22T08:27:14;95230.72;;;30.12;20.96
61961;BME280;47923;42.506;24.192;2023-05-22T08:29:39;95226.69;;;30.45;21.25
61961;BME280;47923;42.506;24.192;2023-05-22T08:32:05;95259.59;;;31.04;20.89
61961;BME280;47923;42.506;24.192;2023-05-22T08:34:31;95262.31;;;31.84;20.13
61961;BME280;47923;42.506;24.192;2023-05-22T08:36:57;95260.28;;;30.93;20.72
61961;BME280;47923;42.506;24.192;2023-05-22T08:39:23;95271.09;;;30.22;21.79
61961;BME280;47923;42.506;24.192;2023-05-22T08:41:49;95264.31;;;31.24;21.22
61961;BME280;47923;42.506;24.192;2023-05-22T08:44:15;95262.84;;;30.97;21.82
61961;BME280;47923;42.506;24.192;2023-05-22T08:46:40;95262.44;;;32.34;20.64
61961;BME280;47923;42.506;24.192;2023-05-22T08:49:09;95108.59;;;30.37;20.76
61961;BME280;47923;42.506;24.192;2023-05-22T08:51:40;95178.66;;;33.43;19.73
61961;BME280;47923;42.506;24.192;2023-05-22T08:54:09;95168.44;;;34.88;16.71
61961;BME280;47923;42.506;24.192;2023-05-22T08:56:35;95255.63;;;35.26;17.17
61961;BME280;47923;42.506;24.192;2023-05-22T08:59:01;95083.81;;;35.27;16.07
61961;BME280;47923;42.506;24.192;2023-05-22T09:01:31;95252.00;;;33.13;19.43
61961;BME280;47923;42.506;24.192;2023-05-22T09:04:01;95164.56;;;29.81;22.25
61961;BME280;47923;42.506;24.192;2023-05-22T09:06:28;95233.47;;;28.55;24.51
61961;BME280;47923;42.506;24.192;2023-05-22T09:08:55;95245.31;;;27.81;25.08
61961;BME280;47923;42.506;24.192;2023-05-22T09:11:22;95055.47;;;26.42;25.17
61961;BME280;47923;42.506;24.192;2023-05-22T09:13:48;95161.78;;;27.26;25.71
61961;BME280;47923;42.506;24.192;2023-05-22T09:16:16;95217.53;;;26.95;26.28
61961;BME280;47923;42.506;24.192;2023-05-22T09:18:42;95263.13;;;26.94;27.10
61961;BME280;47923;42.506;24.192;2023-05-22T09:21:09;95272.88;;;26.89;28.05
61961;BME280;47923;42.506;24.192;2023-05-22T09:23:35;95245.56;;;25.48;32.73
61961;BME280;47923;42.506;24.192;2023-05-22T09:26:01;95259.38;;;24.71;34.41
61961;BME280;47923;42.506;24.192;2023-05-22T09:28:32;95289.50;;;24.47;35.92
61961;BME280;47923;42.506;24.192;2023-05-22T09:30:59;94884.00;;;18.90;39.04
61961;BME280;47923;42.506;24.192;2023-05-22T09:33:24;95306.06;;;21.16;38.90
61961;BME280;47923;42.506;24.192;2023-05-22T09:35:53;95112.41;;;18.86;51.55
61961;BME280;47923;42.506;24.192;2023-05-22T09:38:25;95296.97;;;19.75;57.94
61961;BME280;47923;42.506;24.192;2023-05-22T09:40:53;94897.09;;;17.09;58.74
61961;BME280;47923;42.506;24.192;2023-05-22T09:43:22;95308.63;;;19.36;63.38
61961;BME280;47923;42.506;24.192;2023-05-22T09:46:00;95316.94;;;15.96;95.46
61961;BME280;47923;42.506;24.192;2023-05-22T09:48:25;95298.38;;;15.66;100.00
61961;BME280;47923;42.506;24.192;2023-05-22T09:50:52;95305.34;;;15.57;100.00
61961;BME280;47923;42.506;24.192;2023-05-22T09:53:25;95301.16;;;15.31;100.00
61961;BME280;47923;42.506;24.192;2023-05-22T09:55:52;95238.25;;;15.07;100.00
61961;BME280;47923;42.506;24.192;2023-05-22T09:58:19;95140.41;;;14.54;100.00
61961;BME280;47923;42.506;24.192;2023-05-22T10:00:48;95185.34;;;15.15;99.65
61961;BME280;47923;42.506;24.192;2023-05-22T10:03:15;95236.06;;;15.83;100.00
61961;BME280;47923;42.506;24.192;2023-05-22T10:05:47;95304.06;;;16.70;96.70
61961;BME280;47923;42.506;24.192;2023-05-22T10:08:31;95196.03;;;16.32;90.84
61961;BME280;47923;42.506;24.192;2023-05-22T10:11:01;95238.72;;;17.01;85.50
61961;BME280;47923;42.506;24.192;2023-05-22T10:13:28;95305.97;;;17.63;78.93
61961;BME280;47923;42.506;24.192;2023-05-22T10:15:54;95292.34;;;18.24;80.37
61961;BME280;47923;42.506;24.192;2023-05-22T10:18:21;95219.56;;;18.57;81.19
61961;BME280;47923;42.506;24.192;2023-05-22T10:20:47;95290.38;;;20.48;73.91
61961;BME280;47923;42.506;24.192;2023-05-22T10:23:14;95022.81;;;20.27;62.33
61961;BME280;47923;42.506;24.192;2023-05-22T10:25:44;95284.16;;;21.74;59.68
61961;BME280;47923;42.506;24.192;2023-05-22T10:28:24;95174.09;;;19.90;55.87
61961;BME280;47923;42.506;24.192;2023-05-22T10:30:59;95271.44;;;20.18;61.65
61961;BME280;47923;42.506;24.192;2023-05-22T10:33:45;95277.00;;;20.14;57.73
61961;BME280;47923;42.506;24.192;2023-05-22T10:41:31;95141.22;;;19.14;55.00
61961;BME280;47923;42.506;24.192;2023-05-22T10:43:58;95112.63;;;18.52;63.10
61961;BME280;47923;42.506;24.192;2023-05-22T10:46:23;95303.41;;;19.21;65.28
61961;BME280;47923;42.506;24.192;2023-05-22T10:48:53;95229.34;;;18.58;61.31
61961;BME280;47923;42.506;24.192;2023-05-22T10:51:22;95299.50;;;18.72;64.18
61961;BME280;47923;42.506;24.192;2023-05-22T10:53:59;95301.75;;;18.81;66.97
61961;BME280;47923;42.506;24.192;2023-05-22T10:56:36;95219.69;;;17.65;58.60
61961;BME280;47923;42.506;24.192;2023-05-22T10:59:04;95121.59;;;16.83;60.33
61961;BME280;47923;42.506;24.192;2023-05-22T11:01:31;95275.75;;;17.77;62.79
61961;BME280;47923;42.506;24.192;2023-05-22T11:06:37;95316.56;;;17.54;61.44
61961;BME280;47923;42.506;24.192;2023-05-22T11:09:26;95307.41;;;17.37;63.00
61961;BME280;47923;42.506;24.192;2023-05-22T11:12:15;95307.25;;;17.51;65.01
61961;BME280;47923;42.506;24.192;2023-05-22T11:20:04;95283.69;;;18.29;65.02
61961;BME280;47923;42.506;24.192;2023-05-22T11:22:35;95292.84;;;18.46;66.96
61961;BME280;47923;42.506;24.192;2023-05-22T11:25:06;95294.94;;;18.62;63.11
61961;BME280;47923;42.506;24.192;2023-05-22T11:27:33;95297.19;;;18.70;64.05
61961;BME280;47923;42.506;24.192;2023-05-22T11:29:59;95251.66;;;18.30;65.75
61961;BME280;47923;42.506;24.192;2023-05-22T11:32:26;95289.69;;;18.47;68.33
61961;BME280;47923;42.506;24.192;2023-05-22T11:34:52;95204.34;;;18.06;66.75
61961;BME280;47923;42.506;24.192;2023-05-22T11:37:18;95296.44;;;18.93;68.17
61961;BME280;47923;42.506;24.192;2023-05-22T11:40:11;95287.81;;;19.18;66.03
61961;BME280;47923;42.506;24.192;2023-05-22T11:42:37;95280.03;;;19.80;61.09
61961;BME280;47923;42.506;24.192;2023-05-22T11:45:03;95289.38;;;20.22;59.69
61961;BME280;47923;42.506;24.192;2023-05-22T11:47:30;95145.28;;;19.65;62.53
61961;BME280;47923;42.506;24.192;2023-05-22T11:49:56;95095.75;;;19.36;58.63
61961;BME280;47923;42.506;24.192;2023-05-22T11:52:22;95288.41;;;19.93;57.86
61961;BME280;47923;42.506;24.192;2023-05-22T11:54:50;95192.66;;;19.22;59.01
61961;BME280;47923;42.506;24.192;2023-05-22T11:57:17;95207.84;;;19.27;59.90
61961;BME280;47923;42.506;24.192;2023-05-22T11:59:46;95266.69;;;19.62;62.55
61961;BME280;47923;42.506;24.192;2023-05-22T12:02:12;95276.31;;;19.90;57.60
61961;BME280;47923;42.506;24.192;2023-05-22T12:04:40;95216.34;;;19.52;58.54
61961;BME280;47923;42.506;24.192;2023-05-22T12:07:07;95271.28;;;19.69;57.72
61961;BME280;47923;42.506;24.192;2023-05-22T12:09:33;95270.13;;;19.86;59.91
61961;BME280;47923;42.506;24.192;2023-05-22T12:11:58;95271.47;;;19.98;57.07
61961;BME280;47923;42.506;24.192;2023-05-22T12:14:28;95157.88;;;19.63;57.02
61961;BME280;47923;42.506;24.192;2023-05-22T12:16:57;95167.97;;;20.02;55.80
61961;BME280;47923;42.506;24.192;2023-05-22T12:19:24;95260.50;;;20.86;54.03
61961;BME280;47923;42.506;24.192;2023-05-22T12:21:51;95258.53;;;20.87;53.21
61961;BME280;47923;42.506;24.192;2023-05-22T12:24:17;95198.78;;;20.42;53.13
61961;BME280;47923;42.506;24.192;2023-05-22T12:26:49;95213.38;;;20.55;52.80
61961;BME280;47923;42.506;24.192;2023-05-22T12:29:15;94982.50;;;19.10;53.89
61961;BME280;47923;42.506;24.192;2023-05-22T12:31:43;95254.28;;;21.15;53.32
61961;BME280;47923;42.506;24.192;2023-05-22T12:34:10;95243.88;;;21.39;48.28
61961;BME280;47923;42.506;24.192;2023-05-22T12:36:41;95231.00;;;21.36;49.88
61961;BME280;47923;42.506;24.192;2023-05-22T12:39:16;95226.22;;;21.94;47.05
61961;BME280;47923;42.506;24.192;2023-05-22T12:41:44;95164.53;;;21.83;49.97
61961;BME280;47923;42.506;24.192;2023-05-22T12:44:10;95164.38;;;21.73;46.32
61961;BME280;47923;42.506;24.192;2023-05-22T12:46:36;95270.19;;;22.11;46.03
61961;BME280;47923;42.506;24.192;2023-05-22T12:49:02;94884.19;;;19.48;46.67
61961;BME280;47923;42.506;24.192;2023-05-22T12:51:29;95240.91;;;22.04;48.23
61961;BME280;47923;42.506;24.192;2023-05-22T12:53:59;95196.00;;;21.52;45.81
61961;BME280;47923;42.506;24.192;2023-05-22T12:56:24;95234.78;;;21.84;46.47
61961;BME280;47923;42.506;24.192;2023-05-22T12:58:50;95121.44;;;21.09;45.72
61961;BME280;47923;42.506;24.192;2023-05-22T13:01:16;94857.16;;;19.18;46.23
61961;BME280;47923;42.506;24.192;2023-05-22T13:03:42;95000.81;;;20.14;48.12
61961;BME280;47923;42.506;24.192;2023-05-22T13:06:07;94935.38;;;19.68;47.69
61961;BME280;47923;42.506;24.192;2023-05-22T13:08:33;95236.72;;;21.70;47.41
61961;BME280;47923;42.506;24.192;2023-05-22T13:10:58;95251.94;;;21.75;47.30
61961;BME280;47923;42.506;24.192;2023-05-22T13:13:24;95229.75;;;21.53;47.92
61961;BME280;47923;42.506;24.192;2023-05-22T13:15:49;94905.50;;;19.73;47.90